Time;durP1;ratioP1;P1;durP2;ratioP2;P2;SDS_P1;SDS_P2;PMS_P1;PMS_P2;Temp;Humidity;BMP_temperature;BMP_pressure;BME280_temperature;BME280_humidity;BME280_pressure;Samples;Min_cycle;Max_cycle;Signal;HPM_P1;HPM_P2
2023/08/19 00:03:16;;;;;;;;;;;;;;;;;;5152717;27;20295;-67
2023/08/19 00:09:26;;;;;;;;;;;;;;;;;;5091244;27;20285;-67
2023/08/19 00:11:52;;;;;;;;;;;;;;;;;;5091683;28;19919;-67
2023/08/19 00:15:42;;;;;;;;;;;;;;;;;;5111788;27;19916;-67
2023/08/19 00:18:08;;;;;;;;;;;;;;;;;;5111279;28;20003;-67
2023/08/19 00:21:38;;;;;;;;;;;;;;;;;;5152999;27;20002;-67
2023/08/19 00:26:06;;;;;;;;;;;;;;;;;;5071965;28;19917;-67
2023/08/19 00:28:32;;;;;;;;;;;;;;;;;;5071376;28;20007;-67
2023/08/19 00:30:58;;;;;;;;;;;;;;;;;;5069332;28;19913;-67
2023/08/19 00:33:24;;;;;;;;;;;;;;;;;;5071109;28;20025;-67
2023/08/19 00:35:51;;;;;;;;;;;;;;;;;;5071020;28;19951;-67
2023/08/19 00:38:17;;;;;;;;;;;;;;;;;;5070526;28;20305;-67
2023/08/19 00:40:42;;;;;;;;;;;;;;;;;;5069627;28;19936;-67
2023/08/19 00:43:08;;;;;;;;;;;;;;;;;;5070866;28;19908;-67
2023/08/19 00:45:34;;;;;;;;;;;;;;;;;;5069050;28;19917;-67
2023/08/19 00:48:02;;;;;;;;;;;;;;;;;;5069494;28;19958;-67
2023/08/19 00:50:28;;;;;;;;;;;;;;;;;;5070659;28;19909;-67
2023/08/19 00:52:54;;;;;;;;;;;;;;;;;;5070312;28;19908;-67
2023/08/19 00:57:35;;;;;;;;;;;;;;;;;;5091624;27;20398;-67
2023/08/19 01:00:01;;;;;;;;;;;;;;;;;;5091155;28;20334;-67
2023/08/19 01:04:53;;;;;;;;;;;;;;;;;;5132663;27;20014;-66
2023/08/19 01:07:19;;;;;;;;;;;;;;;;;;5131858;28;19958;-67
2023/08/19 01:12:12;;;;;;;;;;;;;;;;;;5112059;27;19912;-66
2023/08/19 01:14:38;;;;;;;;;;;;;;;;;;5110027;28;20324;-67
2023/08/19 01:20:14;;;;;;;;;;;;;;;;;;5091567;27;19913;-67
2023/08/19 01:22:40;;;;;;;;;;;;;;;;;;5091548;28;19995;-67
2023/08/19 01:25:06;;;;;;;;;;;;;;;;;;5091562;28;19908;-66
2023/08/19 01:27:32;;;;;;;;;;;;;;;;;;5091081;28;19919;-67
2023/08/19 01:30:43;;;;;;;;;;;;;;;;;;5099731;27;2105791;-67
2023/08/19 01:33:09;;;;;;;;;;;;;;;;;;5173711;27;19911;-67
2023/08/19 01:35:35;;;;;;;;;;;;;;;;;;5173251;27;19960;-67
2023/08/19 01:38:01;;;;;;;;;;;;;;;;;;5173672;27;19908;-67
2023/08/19 01:42:33;;;;;;;;;;;;;;;;;;5070908;28;19923;-67
2023/08/19 01:45:55;;;;;;;;;;;;;;;;;;5152922;27;20349;-67
2023/08/19 01:48:20;;;;;;;;;;;;;;;;;;5133897;27;19961;-66
2023/08/19 01:50:46;;;;;;;;;;;;;;;;;;5134222;27;19907;-67
2023/08/19 01:54:49;;;;;;;;;;;;;;;;;;5111546;27;19916;-67
2023/08/19 01:58:45;;;;;;;;;;;;;;;;;;5091646;27;19916;-66
2023/08/19 02:01:11;;;;;;;;;;;;;;;;;;5091346;28;20011;-67
2023/08/19 02:03:37;;;;;;;;;;;;;;;;;;5090830;28;19908;-67
2023/08/19 02:09:40;;;;;;;;;;;;;;;;;;5091203;27;19913;-68
2023/08/19 02:12:06;;;;;;;;;;;;;;;;;;5091315;28;20019;-68
2023/08/19 02:14:32;;;;;;;;;;;;;;;;;;5091218;28;19912;-68
2023/08/19 02:19:09;;;;;;;;;;;;;;;;;;5091437;28;19917;-67
2023/08/19 02:21:35;;;;;;;;;;;;;;;;;;5091339;28;20439;-67
2023/08/19 02:24:28;;;;;;;;;;;;;;;;;;5111523;27;19916;-66
2023/08/19 02:26:54;;;;;;;;;;;;;;;;;;5111628;28;20003;-67
2023/08/19 02:29:20;;;;;;;;;;;;;;;;;;5111568;28;19908;-67
2023/08/19 02:31:47;;;;;;;;;;;;;;;;;;5111119;28;19908;-67
2023/08/19 02:34:43;;;;;;;;;;;;;;;;;;5112256;27;19916;-67
2023/08/19 02:37:13;;;;;;;;;;;;;;;;;;5111241;28;20007;-67
2023/08/19 02:39:39;;;;;;;;;;;;;;;;;;5111726;28;19908;-67
2023/08/19 02:42:05;;;;;;;;;;;;;;;;;;5111615;28;19954;-67
2023/08/19 02:45:10;;;;;;;;;;;;;;;;;;5111622;27;19922;-67
2023/08/19 02:47:36;;;;;;;;;;;;;;;;;;5112240;28;19912;-67
2023/08/19 02:50:02;;;;;;;;;;;;;;;;;;5111659;28;20369;-67
2023/08/19 02:52:28;;;;;;;;;;;;;;;;;;5111256;28;19908;-67
2023/08/19 02:54:54;;;;;;;;;;;;;;;;;;5111621;28;19908;-67
2023/08/19 02:57:20;;;;;;;;;;;;;;;;;;5111506;28;19916;-67
2023/08/19 02:59:46;;;;;;;;;;;;;;;;;;5111367;28;19908;-67
2023/08/19 03:02:13;;;;;;;;;;;;;;;;;;5111449;28;19931;-67
2023/08/19 03:05:13;;;;;;;;;;;;;;;;;;5091343;27;19916;-66
2023/08/19 03:07:39;;;;;;;;;;;;;;;;;;5091315;28;19994;-67
2023/08/19 03:13:47;;;;;;;;;;;;;;;;;;5091146;28;19917;-67
2023/08/19 03:16:14;;;;;;;;;;;;;;;;;;5091511;28;20347;-67
2023/08/19 03:21:13;;;;;;;;;;;;;;;;;;5090966;28;19916;-67
2023/08/19 03:23:39;;;;;;;;;;;;;;;;;;5091408;28;20348;-66
2023/08/19 03:26:05;;;;;;;;;;;;;;;;;;5091302;28;19908;-67
2023/08/19 03:28:31;;;;;;;;;;;;;;;;;;5090932;28;19978;-67
2023/08/19 03:30:57;;;;;;;;;;;;;;;;;;5091161;28;20002;-67
2023/08/19 03:33:23;;;;;;;;;;;;;;;;;;5090687;28;19912;-67
2023/08/19 03:37:16;;;;;;;;;;;;;;;;;;5091594;27;19923;-67
2023/08/19 03:39:42;;;;;;;;;;;;;;;;;;5090013;28;19999;-67
2023/08/19 03:42:53;;;;;;;;;;;;;;;;;;5091691;27;19922;-67
2023/08/19 03:46:19;;;;;;;;;;;;;;;;;;5071361;28;19938;-67
2023/08/19 03:48:45;;;;;;;;;;;;;;;;;;5070720;28;20436;-67
2023/08/19 03:51:11;;;;;;;;;;;;;;;;;;5070976;28;19908;-67
2023/08/19 03:53:37;;;;;;;;;;;;;;;;;;5070988;28;19913;-67
2023/08/19 03:56:03;;;;;;;;;;;;;;;;;;5070503;28;19908;-66
2023/08/19 03:58:29;;;;;;;;;;;;;;;;;;5070857;28;20004;-67
2023/08/19 04:04:28;;;;;;;;;;;;;;;;;;5071317;28;20410;-67
2023/08/19 04:08:57;;;;;;;;;;;;;;;;;;5091528;28;19916;-67
2023/08/19 04:11:23;;;;;;;;;;;;;;;;;;5091362;28;20011;-66
2023/08/19 04:15:57;;;;;;;;;;;;;;;;;;5091276;27;19938;-68
2023/08/19 04:18:23;;;;;;;;;;;;;;;;;;5091307;28;20428;-67
2023/08/19 04:20:49;;;;;;;;;;;;;;;;;;5091183;28;19962;-67
2023/08/19 04:23:15;;;;;;;;;;;;;;;;;;5090830;28;19914;-67
2023/08/19 04:25:41;;;;;;;;;;;;;;;;;;5089855;28;19966;-67
2023/08/19 04:28:07;;;;;;;;;;;;;;;;;;5091076;28;19958;-67
2023/08/19 04:32:14;;;;;;;;;;;;;;;;;;5092117;27;19916;-68
2023/08/19 04:37:28;;;;;;;;;;;;;;;;;;5091116;27;20403;-66
2023/08/19 04:43:34;;;;;;;;;;;;;;;;;;5091077;28;20398;-66
2023/08/19 04:46:39;;;;;;;;;;;;;;;;;;5111909;27;19916;-69
2023/08/19 04:49:05;;;;;;;;;;;;;;;;;;5111869;28;19912;-67
2023/08/19 04:51:32;;;;;;;;;;;;;;;;;;5109980;28;19908;-67
2023/08/19 04:55:23;;;;;;;;;;;;;;;;;;5091615;27;20282;-66
2023/08/19 04:57:49;;;;;;;;;;;;;;;;;;5091218;28;19999;-67
2023/08/19 05:00:15;;;;;;;;;;;;;;;;;;5091285;28;19914;-67
2023/08/19 05:02:41;;;;;;;;;;;;;;;;;;5090018;28;19908;-66
2023/08/19 05:05:07;;;;;;;;;;;;;;;;;;5090937;28;19915;-67
2023/08/19 05:07:33;;;;;;;;;;;;;;;;;;5089885;28;19913;-66
2023/08/19 05:09:59;;;;;;;;;;;;;;;;;;5091045;28;19984;-66
2023/08/19 05:13:03;;;;;;;;;;;;;;;;;;5091312;27;19916;-66
2023/08/19 05:15:29;;;;;;;;;;;;;;;;;;5090066;28;20002;-66
2023/08/19 05:18:45;;;;;;;;;;;;;;;;;;5091468;27;19916;-67
2023/08/19 05:21:11;;;;;;;;;;;;;;;;;;5091281;28;20003;-67
2023/08/19 05:23:37;;;;;;;;;;;;;;;;;;5091833;28;19908;-67
2023/08/19 05:26:13;;;;;;;;;;;;;;;;;;5091128;27;19922;-68
2023/08/19 05:28:39;;;;;;;;;;;;;;;;;;5090096;28;19995;-67
2023/08/19 05:31:14;;;;;;;;;;;;;;;;;;5091623;27;20392;-67
2023/08/19 05:37:17;;;;;;;;;;;;;;;;;;5091605;27;20299;-68
2023/08/19 05:39:43;;;;;;;;;;;;;;;;;;5091458;28;19999;-67
2023/08/19 05:43:16;;;;;;;;;;;;;;;;;;5111963;27;19916;-69
2023/08/19 05:45:42;;;;;;;;;;;;;;;;;;5111900;28;20014;-68
2023/08/19 05:48:08;;;;;;;;;;;;;;;;;;5111228;28;19908;-69
2023/08/19 05:52:24;;;;;;;;;;;;;;;;;;5091627;27;19913;-67
2023/08/19 05:54:50;;;;;;;;;;;;;;;;;;5091134;28;19999;-67
2023/08/19 05:57:16;;;;;;;;;;;;;;;;;;5089872;28;19916;-67
2023/08/19 05:59:42;;;;;;;;;;;;;;;;;;5091263;28;19909;-67
2023/08/19 06:02:08;;;;;;;;;;;;;;;;;;5090703;28;19909;-68
2023/08/19 06:04:34;;;;;;;;;;;;;;;;;;5091067;28;19912;-67
2023/08/19 06:08:12;;;;;;;;;;;;;;;;;;5111345;27;19916;-67
2023/08/19 06:10:43;;;;;;;;;;;;;;;;;;5112258;28;19912;-67
2023/08/19 06:13:42;;;;;;;;;;;;;;;;;;5091302;28;19917;-67
2023/08/19 06:16:08;;;;;;;;;;;;;;;;;;5091034;28;19913;-67
2023/08/19 06:19:34;;;;;;;;;;;;;;;;;;5111975;27;19922;-67
2023/08/19 06:22:00;;;;;;;;;;;;;;;;;;5109951;28;20006;-67
2023/08/19 06:24:27;;;;;;;;;;;;;;;;;;5111845;28;19908;-67
2023/08/19 06:28:03;;;;;;;;;;;;;;;;;;5091727;27;19923;-67
2023/08/19 06:30:29;;;;;;;;;;;;;;;;;;5090808;28;20351;-67
2023/08/19 06:32:55;;;;;;;;;;;;;;;;;;5091266;28;19912;-67
2023/08/19 06:35:21;;;;;;;;;;;;;;;;;;5091204;28;19908;-67
2023/08/19 06:37:47;;;;;;;;;;;;;;;;;;5090754;28;19951;-67
2023/08/19 06:40:13;;;;;;;;;;;;;;;;;;5091066;28;19913;-67
2023/08/19 06:42:39;;;;;;;;;;;;;;;;;;5091223;28;19912;-67
2023/08/19 06:45:50;;;;;;;;;;;;;;;;;;5112196;27;19916;-67
2023/08/19 06:48:16;;;;;;;;;;;;;;;;;;5111914;28;20314;-67
2023/08/19 06:50:42;;;;;;;;;;;;;;;;;;5111612;28;19908;-67
2023/08/19 06:53:10;;;;;;;;;;;;;;;;;;5111540;28;19954;-67
2023/08/19 06:55:36;;;;;;;;;;;;;;;;;;5111448;28;20275;-67
2023/08/19 06:58:02;;;;;;;;;;;;;;;;;;5111137;28;19991;-67
2023/08/19 07:00:28;;;;;;;;;;;;;;;;;;5110092;28;19912;-67
2023/08/19 07:02:54;;;;;;;;;;;;;;;;;;5111381;28;19982;-67
2023/08/19 07:05:20;;;;;;;;;;;;;;;;;;5110857;28;19920;-67
2023/08/19 07:07:46;;;;;;;;;;;;;;;;;;5110043;28;20257;-67
2023/08/19 07:10:12;;;;;;;;;;;;;;;;;;5111269;28;19908;-67
2023/08/19 07:12:38;;;;;;;;;;;;;;;;;;5110994;28;19915;-67
2023/08/19 07:15:11;;;;;;;;;;;;;;;;;;5111269;28;19914;-67
2023/08/19 07:17:37;;;;;;;;;;;;;;;;;;5109866;28;20372;-67
2023/08/19 07:20:03;;;;;;;;;;;;;;;;;;5110712;28;19915;-67
2023/08/19 07:22:29;;;;;;;;;;;;;;;;;;5111138;28;19919;-67
2023/08/19 07:24:55;;;;;;;;;;;;;;;;;;5110763;28;20010;-67
2023/08/19 07:27:22;;;;;;;;;;;;;;;;;;5109183;28;19908;-67
2023/08/19 07:29:51;;;;;;;;;;;;;;;;;;5109615;28;19908;-67
2023/08/19 07:32:17;;;;;;;;;;;;;;;;;;5110578;28;19931;-67
2023/08/19 07:34:44;;;;;;;;;;;;;;;;;;5111021;28;19916;-67
2023/08/19 07:37:10;;;;;;;;;;;;;;;;;;5110777;28;19915;-68
2023/08/19 07:39:36;;;;;;;;;;;;;;;;;;5110171;28;19911;-67
2023/08/19 07:42:02;;;;;;;;;;;;;;;;;;5110648;28;20004;-69
2023/08/19 07:44:29;;;;;;;;;;;;;;;;;;5110285;28;19927;-67
2023/08/19 07:46:55;;;;;;;;;;;;;;;;;;5108752;28;19953;-67
2023/08/19 07:49:21;;;;;;;;;;;;;;;;;;5110521;28;19912;-67
2023/08/19 07:51:47;;;;;;;;;;;;;;;;;;5110380;28;19908;-67
2023/08/19 07:54:14;;;;;;;;;;;;;;;;;;5108651;28;19915;-67
2023/08/19 07:56:40;;;;;;;;;;;;;;;;;;5099451;28;19908;-67
2023/08/19 07:59:06;;;;;;;;;;;;;;;;;;5095444;28;20322;-67
2023/08/19 08:01:32;;;;;;;;;;;;;;;;;;5096292;28;19915;-67
2023/08/19 08:03:58;;;;;;;;;;;;;;;;;;5096581;28;19912;-68
2023/08/19 08:06:24;;;;;;;;;;;;;;;;;;5096604;28;19960;-68
2023/08/19 08:08:50;;;;;;;;;;;;;;;;;;5096231;28;19909;-67
2023/08/19 08:11:16;;;;;;;;;;;;;;;;;;5096458;28;19915;-67
2023/08/19 08:13:42;;;;;;;;;;;;;;;;;;5096526;28;20003;-68
2023/08/19 08:16:08;;;;;;;;;;;;;;;;;;5094714;28;20009;-69
2023/08/19 08:18:34;;;;;;;;;;;;;;;;;;5096406;28;20338;-68
2023/08/19 08:21:00;;;;;;;;;;;;;;;;;;5096389;28;20413;-68
2023/08/19 08:23:26;;;;;;;;;;;;;;;;;;5095774;28;19916;-67
2023/08/19 08:25:52;;;;;;;;;;;;;;;;;;5096233;28;19912;-67
2023/08/19 08:28:18;;;;;;;;;;;;;;;;;;5096235;28;19908;-67
2023/08/19 08:30:44;;;;;;;;;;;;;;;;;;5095611;28;19915;-67
2023/08/19 08:33:10;;;;;;;;;;;;;;;;;;5096370;28;19958;-67
2023/08/19 08:35:36;;;;;;;;;;;;;;;;;;5094341;28;19908;-67
2023/08/19 08:38:01;;;;;;;;;;;;;;;;;;5095924;28;19908;-67
2023/08/19 08:40:27;;;;;;;;;;;;;;;;;;5094681;28;19908;-68
2023/08/19 08:42:53;;;;;;;;;;;;;;;;;;5095654;28;19915;-68
2023/08/19 08:45:19;;;;;;;;;;;;;;;;;;5095672;28;19924;-68
2023/08/19 08:47:45;;;;;;;;;;;;;;;;;;5095713;28;20372;-68
2023/08/19 08:50:11;;;;;;;;;;;;;;;;;;5095386;28;19908;-69
2023/08/19 08:52:39;;;;;;;;;;;;;;;;;;5095768;28;19917;-68
2023/08/19 08:55:05;;;;;;;;;;;;;;;;;;5094282;28;19931;-68
2023/08/19 08:57:31;;;;;;;;;;;;;;;;;;5095253;28;20368;-68
2023/08/19 08:59:57;;;;;;;;;;;;;;;;;;5094378;28;19908;-68
2023/08/19 09:02:22;;;;;;;;;;;;;;;;;;5095539;28;20395;-68
2023/08/19 09:04:48;;;;;;;;;;;;;;;;;;5095158;28;20384;-69
2023/08/19 09:07:14;;;;;;;;;;;;;;;;;;5094495;28;20003;-68
2023/08/19 09:09:41;;;;;;;;;;;;;;;;;;5095827;28;20344;-68
2023/08/19 09:12:07;;;;;;;;;;;;;;;;;;5095150;28;19908;-68
2023/08/19 09:14:33;;;;;;;;;;;;;;;;;;5095253;28;19969;-68
2023/08/19 09:16:59;;;;;;;;;;;;;;;;;;5095307;28;19912;-67
2023/08/19 09:19:25;;;;;;;;;;;;;;;;;;5094864;28;19915;-67
2023/08/19 09:21:51;;;;;;;;;;;;;;;;;;5095077;28;19915;-68
2023/08/19 09:24:17;;;;;;;;;;;;;;;;;;5093838;28;19916;-69
2023/08/19 09:26:43;;;;;;;;;;;;;;;;;;5094734;28;19912;-68
2023/08/19 09:29:09;;;;;;;;;;;;;;;;;;5095206;28;19919;-68
2023/08/19 09:31:38;;;;;;;;;;;;;;;;;;5093635;28;20006;-68
2023/08/19 09:34:04;;;;;;;;;;;;;;;;;;5094592;28;19914;-68
2023/08/19 09:36:30;;;;;;;;;;;;;;;;;;5094922;28;19912;-68
2023/08/19 09:38:56;;;;;;;;;;;;;;;;;;5094504;28;19961;-68
2023/08/19 09:41:22;;;;;;;;;;;;;;;;;;5094796;28;19908;-68
2023/08/19 09:43:48;;;;;;;;;;;;;;;;;;5094546;28;19920;-68
2023/08/19 09:46:14;;;;;;;;;;;;;;;;;;5094450;28;20237;-68
2023/08/19 09:48:40;;;;;;;;;;;;;;;;;;5094633;28;19909;-68
2023/08/19 09:51:08;;;;;;;;;;;;;;;;;;5094663;28;19908;-68
2023/08/19 09:53:34;;;;;;;;;;;;;;;;;;5094208;28;20380;-68
2023/08/19 09:56:00;;;;;;;;;;;;;;;;;;5094681;28;19919;-68
2023/08/19 09:58:26;;;;;;;;;;;;;;;;;;5094575;28;19908;-68
2023/08/19 10:00:52;;;;;;;;;;;;;;;;;;5094014;28;19908;-68
2023/08/19 10:03:18;;;;;;;;;;;;;;;;;;5094644;28;19921;-68
2023/08/19 10:05:44;;;;;;;;;;;;;;;;;;5094286;28;19916;-68
2023/08/19 10:08:10;;;;;;;;;;;;;;;;;;5094078;28;20311;-68
2023/08/19 10:10:36;;;;;;;;;;;;;;;;;;5094464;28;19958;-68
2023/08/19 10:13:02;;;;;;;;;;;;;;;;;;5094246;28;19914;-68
2023/08/19 10:15:28;;;;;;;;;;;;;;;;;;5093936;28;19914;-68
2023/08/19 10:17:54;;;;;;;;;;;;;;;;;;5094184;28;20273;-68
2023/08/19 10:20:21;;;;;;;;;;;;;;;;;;5093834;28;20006;-68
2023/08/19 10:22:47;;;;;;;;;;;;;;;;;;5093679;28;19915;-68
2023/08/19 10:25:13;;;;;;;;;;;;;;;;;;5094005;28;19916;-68
2023/08/19 10:27:40;;;;;;;;;;;;;;;;;;5092755;28;19919;-68
2023/08/19 10:30:06;;;;;;;;;;;;;;;;;;5093577;28;19931;-68
2023/08/19 10:32:32;;;;;;;;;;;;;;;;;;5094101;28;19909;-68
2023/08/19 10:34:58;;;;;;;;;;;;;;;;;;5093882;28;19915;-68
2023/08/19 10:37:24;;;;;;;;;;;;;;;;;;5093510;28;19908;-68
2023/08/19 10:39:49;;;;;;;;;;;;;;;;;;5093908;28;20279;-68
2023/08/19 10:42:15;;;;;;;;;;;;;;;;;;5093717;28;20335;-68
2023/08/19 10:44:41;;;;;;;;;;;;;;;;;;5093789;28;20269;-67
2023/08/19 10:47:08;;;;;;;;;;;;;;;;;;5093902;28;20288;-68
2023/08/19 10:49:34;;;;;;;;;;;;;;;;;;5093447;28;19912;-68
2023/08/19 10:52:06;;;;;;;;;;;;;;;;;;5093750;28;19919;-68
2023/08/19 10:54:35;;;;;;;;;;;;;;;;;;5093820;28;19999;-68
2023/08/19 10:57:00;;;;;;;;;;;;;;;;;;5093378;28;19909;-68
2023/08/19 10:59:26;;;;;;;;;;;;;;;;;;5093818;28;19954;-68
2023/08/19 11:01:54;;;;;;;;;;;;;;;;;;5093998;28;19912;-68
2023/08/19 11:04:20;;;;;;;;;;;;;;;;;;5093195;28;20027;-67
2023/08/19 11:06:46;;;;;;;;;;;;;;;;;;5094223;28;20361;-68
2023/08/19 11:09:11;;;;;;;;;;;;;;;;;;5093669;28;20257;-68
2023/08/19 11:11:37;;;;;;;;;;;;;;;;;;5093198;28;20321;-68
2023/08/19 11:14:03;;;;;;;;;;;;;;;;;;5093560;28;19915;-69
2023/08/19 11:16:29;;;;;;;;;;;;;;;;;;5093792;28;20045;-69
2023/08/19 11:18:56;;;;;;;;;;;;;;;;;;5093349;28;19909;-68
2023/08/19 11:21:24;;;;;;;;;;;;;;;;;;5093842;28;19915;-68
2023/08/19 11:23:51;;;;;;;;;;;;;;;;;;5093445;28;19912;-68
2023/08/19 11:26:17;;;;;;;;;;;;;;;;;;5091845;28;19918;-69
2023/08/19 11:28:43;;;;;;;;;;;;;;;;;;5093522;28;19995;-68
2023/08/19 11:31:09;;;;;;;;;;;;;;;;;;5094843;28;19926;-69
2023/08/19 11:33:35;;;;;;;;;;;;;;;;;;5097031;28;20321;-68
2023/08/19 11:36:01;;;;;;;;;;;;;;;;;;5097296;28;19908;-68
2023/08/19 11:38:27;;;;;;;;;;;;;;;;;;5096908;28;19930;-68
2023/08/19 11:40:53;;;;;;;;;;;;;;;;;;5097100;28;19908;-68
2023/08/19 11:43:19;;;;;;;;;;;;;;;;;;5097087;28;20013;-69
2023/08/19 11:45:45;;;;;;;;;;;;;;;;;;5096393;28;19927;-69
2023/08/19 11:48:11;;;;;;;;;;;;;;;;;;5097014;28;19908;-67
2023/08/19 11:50:37;;;;;;;;;;;;;;;;;;5096922;28;19919;-68
2023/08/19 11:53:02;;;;;;;;;;;;;;;;;;5095177;28;19953;-68
2023/08/19 11:55:28;;;;;;;;;;;;;;;;;;5097044;28;19914;-68
2023/08/19 11:57:54;;;;;;;;;;;;;;;;;;5096802;28;20002;-69
2023/08/19 12:00:20;;;;;;;;;;;;;;;;;;5096322;28;19908;-69
2023/08/19 12:02:46;;;;;;;;;;;;;;;;;;5096712;28;20002;-68
2023/08/19 12:05:12;;;;;;;;;;;;;;;;;;5096706;28;19923;-69
2023/08/19 12:07:38;;;;;;;;;;;;;;;;;;5096257;28;19932;-69
2023/08/19 12:10:04;;;;;;;;;;;;;;;;;;5096863;28;19908;-69
2023/08/19 12:12:30;;;;;;;;;;;;;;;;;;5096633;28;19915;-69
2023/08/19 12:14:58;;;;;;;;;;;;;;;;;;5094865;28;19914;-69
2023/08/19 12:17:23;;;;;;;;;;;;;;;;;;5096571;28;20398;-68
2023/08/19 12:19:49;;;;;;;;;;;;;;;;;;5096373;28;20006;-68
2023/08/19 12:22:15;;;;;;;;;;;;;;;;;;5095984;28;19908;-68
2023/08/19 12:24:41;;;;;;;;;;;;;;;;;;5096272;28;19916;-68
2023/08/19 12:27:07;;;;;;;;;;;;;;;;;;5096274;28;19908;-69
2023/08/19 12:29:33;;;;;;;;;;;;;;;;;;5094617;28;19908;-69
2023/08/19 12:31:59;;;;;;;;;;;;;;;;;;5096429;28;19954;-69
2023/08/19 12:34:25;;;;;;;;;;;;;;;;;;5096193;28;19915;-68
2023/08/19 12:36:51;;;;;;;;;;;;;;;;;;5095719;28;19908;-68
2023/08/19 12:39:17;;;;;;;;;;;;;;;;;;5096088;28;19911;-68
2023/08/19 12:41:44;;;;;;;;;;;;;;;;;;5095970;28;19908;-68
2023/08/19 12:44:10;;;;;;;;;;;;;;;;;;5094462;28;19924;-68
2023/08/19 12:46:36;;;;;;;;;;;;;;;;;;5095949;28;19915;-68
2023/08/19 12:49:03;;;;;;;;;;;;;;;;;;5095494;28;19915;-69
2023/08/19 12:51:29;;;;;;;;;;;;;;;;;;5095818;28;19913;-68
2023/08/19 12:53:55;;;;;;;;;;;;;;;;;;5095713;28;19908;-69
2023/08/19 12:56:21;;;;;;;;;;;;;;;;;;5095462;28;19954;-69
2023/08/19 12:58:47;;;;;;;;;;;;;;;;;;5095842;28;19943;-69
2023/08/19 13:01:13;;;;;;;;;;;;;;;;;;5095628;28;19995;-69
2023/08/19 13:03:39;;;;;;;;;;;;;;;;;;5095469;28;19912;-69
2023/08/19 13:06:05;;;;;;;;;;;;;;;;;;5095534;28;19919;-69
2023/08/19 13:08:31;;;;;;;;;;;;;;;;;;5095518;28;20257;-69
2023/08/19 13:10:57;;;;;;;;;;;;;;;;;;5095061;28;19916;-67
2023/08/19 13:13:23;;;;;;;;;;;;;;;;;;5095338;28;19912;-68
2023/08/19 13:15:49;;;;;;;;;;;;;;;;;;5095322;28;20003;-67
2023/08/19 13:18:18;;;;;;;;;;;;;;;;;;5095028;28;19961;-68
2023/08/19 13:20:44;;;;;;;;;;;;;;;;;;5095300;28;20436;-69
2023/08/19 13:23:10;;;;;;;;;;;;;;;;;;5095317;28;19951;-69
2023/08/19 13:25:36;;;;;;;;;;;;;;;;;;5094708;28;19920;-69
2023/08/19 13:28:02;;;;;;;;;;;;;;;;;;5095143;28;19908;-69
2023/08/19 13:30:28;;;;;;;;;;;;;;;;;;5093841;28;19922;-69
2023/08/19 13:32:54;;;;;;;;;;;;;;;;;;5094669;28;19947;-69
2023/08/19 13:35:21;;;;;;;;;;;;;;;;;;5094975;28;19915;-69
2023/08/19 13:37:47;;;;;;;;;;;;;;;;;;5094975;28;19908;-69
2023/08/19 13:40:13;;;;;;;;;;;;;;;;;;5093294;28;20280;-69
2023/08/19 13:42:39;;;;;;;;;;;;;;;;;;5093572;28;20383;-69
2023/08/19 13:45:07;;;;;;;;;;;;;;;;;;5094224;28;19920;-69
2023/08/19 13:47:32;;;;;;;;;;;;;;;;;;5094712;28;19908;-68
2023/08/19 13:49:58;;;;;;;;;;;;;;;;;;5094596;28;19915;-68
2023/08/19 13:52:24;;;;;;;;;;;;;;;;;;5094712;28;19912;-69
2023/08/19 13:54:50;;;;;;;;;;;;;;;;;;5094072;28;20011;-68
2023/08/19 13:57:16;;;;;;;;;;;;;;;;;;5094525;28;19908;-69
2023/08/19 13:59:42;;;;;;;;;;;;;;;;;;5094113;28;19916;-68
2023/08/19 14:02:08;;;;;;;;;;;;;;;;;;5094490;28;19914;-68
2023/08/19 14:04:34;;;;;;;;;;;;;;;;;;5094327;28;19912;-70
2023/08/19 14:07:00;;;;;;;;;;;;;;;;;;5094240;28;19912;-68
2023/08/19 14:09:26;;;;;;;;;;;;;;;;;;5094367;28;19939;-69
2023/08/19 14:11:52;;;;;;;;;;;;;;;;;;5094385;28;20260;-69
2023/08/19 14:14:18;;;;;;;;;;;;;;;;;;5094239;28;20375;-69
2023/08/19 14:16:44;;;;;;;;;;;;;;;;;;5094253;28;19908;-69
2023/08/19 14:19:11;;;;;;;;;;;;;;;;;;5094239;28;19934;-68
2023/08/19 14:21:37;;;;;;;;;;;;;;;;;;5093744;28;19914;-68
2023/08/19 14:24:03;;;;;;;;;;;;;;;;;;5092792;28;19916;-67
2023/08/19 14:26:30;;;;;;;;;;;;;;;;;;5094133;28;19919;-68
2023/08/19 14:28:56;;;;;;;;;;;;;;;;;;5093611;28;19915;-68
2023/08/19 14:31:22;;;;;;;;;;;;;;;;;;5094034;28;19986;-67
2023/08/19 14:33:49;;;;;;;;;;;;;;;;;;5093995;28;19908;-67
2023/08/19 14:36:15;;;;;;;;;;;;;;;;;;5093604;28;19908;-68
2023/08/19 14:38:41;;;;;;;;;;;;;;;;;;5093868;28;19915;-68
2023/08/19 14:41:07;;;;;;;;;;;;;;;;;;5093835;28;19915;-67
2023/08/19 14:43:33;;;;;;;;;;;;;;;;;;5093238;28;19942;-68
2023/08/19 14:45:59;;;;;;;;;;;;;;;;;;5093784;28;19956;-67
2023/08/19 14:48:25;;;;;;;;;;;;;;;;;;5093351;28;20356;-68
2023/08/19 14:50:51;;;;;;;;;;;;;;;;;;5093772;28;20299;-68
2023/08/19 14:53:17;;;;;;;;;;;;;;;;;;5093735;28;20009;-70
2023/08/19 14:55:43;;;;;;;;;;;;;;;;;;5093288;28;19916;-68
2023/08/19 14:58:09;;;;;;;;;;;;;;;;;;5093779;28;20281;-68
2023/08/19 15:00:35;;;;;;;;;;;;;;;;;;5093660;28;20280;-69
2023/08/19 15:03:01;;;;;;;;;;;;;;;;;;5093381;28;19958;-69
2023/08/19 15:05:27;;;;;;;;;;;;;;;;;;5093969;28;20353;-69
2023/08/19 15:07:53;;;;;;;;;;;;;;;;;;5097791;28;20275;-69
2023/08/19 15:10:19;;;;;;;;;;;;;;;;;;5097613;28;19912;-69
2023/08/19 15:12:45;;;;;;;;;;;;;;;;;;5097712;28;19962;-68
2023/08/19 15:15:15;;;;;;;;;;;;;;;;;;5097604;28;19908;-69
2023/08/19 15:17:41;;;;;;;;;;;;;;;;;;5097187;28;19912;-70
2023/08/19 15:20:07;;;;;;;;;;;;;;;;;;5096285;28;20275;-69
2023/08/19 15:22:33;;;;;;;;;;;;;;;;;;5097862;28;19953;-69
2023/08/19 15:24:59;;;;;;;;;;;;;;;;;;5096979;28;19920;-69
2023/08/19 15:27:25;;;;;;;;;;;;;;;;;;5097416;28;19908;-69
2023/08/19 15:29:51;;;;;;;;;;;;;;;;;;5097725;28;20366;-69
2023/08/19 15:32:18;;;;;;;;;;;;;;;;;;5095646;28;20380;-69
2023/08/19 15:34:43;;;;;;;;;;;;;;;;;;5097441;28;19950;-69
2023/08/19 15:37:10;;;;;;;;;;;;;;;;;;5097311;28;19970;-69
2023/08/19 15:39:36;;;;;;;;;;;;;;;;;;5096854;28;20006;-69
2023/08/19 15:42:02;;;;;;;;;;;;;;;;;;5097222;28;19993;-70
2023/08/19 15:44:28;;;;;;;;;;;;;;;;;;5096865;28;20405;-69
2023/08/19 15:46:54;;;;;;;;;;;;;;;;;;5096668;28;19954;-69
2023/08/19 15:49:20;;;;;;;;;;;;;;;;;;5097047;28;19916;-69
2023/08/19 15:51:46;;;;;;;;;;;;;;;;;;5096667;28;20367;-69
2023/08/19 15:54:12;;;;;;;;;;;;;;;;;;5097241;28;20383;-69
2023/08/19 15:56:38;;;;;;;;;;;;;;;;;;5096834;28;20429;-69
2023/08/19 15:59:04;;;;;;;;;;;;;;;;;;5096392;28;19930;-69
2023/08/19 16:01:30;;;;;;;;;;;;;;;;;;5096721;28;19935;-69
2023/08/19 16:03:56;;;;;;;;;;;;;;;;;;5095353;28;19908;-69
2023/08/19 16:06:22;;;;;;;;;;;;;;;;;;5096445;28;20314;-69
2023/08/19 16:08:50;;;;;;;;;;;;;;;;;;5096695;28;19955;-68
2023/08/19 16:11:16;;;;;;;;;;;;;;;;;;5096622;28;19943;-69
2023/08/19 16:13:42;;;;;;;;;;;;;;;;;;5096139;28;19916;-68
2023/08/19 16:16:08;;;;;;;;;;;;;;;;;;5096243;28;19932;-67
2023/08/19 16:18:34;;;;;;;;;;;;;;;;;;5096317;28;19908;-69
2023/08/19 16:21:00;;;;;;;;;;;;;;;;;;5095827;28;19912;-67
2023/08/19 16:23:26;;;;;;;;;;;;;;;;;;5096370;28;19915;-68
2023/08/19 16:25:52;;;;;;;;;;;;;;;;;;5094982;28;19962;-68
2023/08/19 16:28:18;;;;;;;;;;;;;;;;;;5094605;28;19908;-68
2023/08/19 16:30:44;;;;;;;;;;;;;;;;;;5096118;28;19916;-68
2023/08/19 16:33:10;;;;;;;;;;;;;;;;;;5096160;28;19915;-68
2023/08/19 16:35:36;;;;;;;;;;;;;;;;;;5095739;28;19912;-68
2023/08/19 16:38:03;;;;;;;;;;;;;;;;;;5094800;28;20404;-68
2023/08/19 16:40:29;;;;;;;;;;;;;;;;;;5096311;28;19915;-68
2023/08/19 16:42:55;;;;;;;;;;;;;;;;;;5095628;28;19908;-68
2023/08/19 16:45:20;;;;;;;;;;;;;;;;;;5095673;28;19966;-68
2023/08/19 16:47:46;;;;;;;;;;;;;;;;;;5095873;28;20010;-68
2023/08/19 16:50:12;;;;;;;;;;;;;;;;;;5095513;28;19969;-68
2023/08/19 16:52:38;;;;;;;;;;;;;;;;;;5095759;28;19912;-68
2023/08/19 16:55:04;;;;;;;;;;;;;;;;;;5095424;28;20280;-68
2023/08/19 16:57:30;;;;;;;;;;;;;;;;;;5095817;28;20261;-68
2023/08/19 16:59:56;;;;;;;;;;;;;;;;;;5095682;28;20357;-68
2023/08/19 17:02:22;;;;;;;;;;;;;;;;;;5093979;28;20425;-68
2023/08/19 17:04:48;;;;;;;;;;;;;;;;;;5095431;28;19916;-68
2023/08/19 17:07:15;;;;;;;;;;;;;;;;;;5095833;28;19969;-68
2023/08/19 17:09:42;;;;;;;;;;;;;;;;;;5095071;28;19939;-69
2023/08/19 17:12:08;;;;;;;;;;;;;;;;;;5095372;28;19923;-68
2023/08/19 17:14:33;;;;;;;;;;;;;;;;;;5095580;28;19909;-68
2023/08/19 17:16:59;;;;;;;;;;;;;;;;;;5094898;28;19966;-68
2023/08/19 17:19:25;;;;;;;;;;;;;;;;;;5095381;28;19915;-67
2023/08/19 17:21:51;;;;;;;;;;;;;;;;;;5095255;28;19908;-68
2023/08/19 17:24:17;;;;;;;;;;;;;;;;;;5094701;28;19912;-68
2023/08/19 17:26:43;;;;;;;;;;;;;;;;;;5095136;28;19941;-68
2023/08/19 17:29:09;;;;;;;;;;;;;;;;;;5094293;28;19919;-68
2023/08/19 17:31:35;;;;;;;;;;;;;;;;;;5094775;28;20311;-69
2023/08/19 17:34:01;;;;;;;;;;;;;;;;;;5095061;28;20284;-68
2023/08/19 17:36:27;;;;;;;;;;;;;;;;;;5095097;28;19912;-68
2023/08/19 17:38:53;;;;;;;;;;;;;;;;;;5094453;28;19953;-68
2023/08/19 17:41:19;;;;;;;;;;;;;;;;;;5094833;28;19915;-68
2023/08/19 17:43:45;;;;;;;;;;;;;;;;;;5094473;28;19995;-69
2023/08/19 17:46:11;;;;;;;;;;;;;;;;;;5093137;28;19912;-68
2023/08/19 17:48:37;;;;;;;;;;;;;;;;;;5094714;28;19953;-68
2023/08/19 17:51:03;;;;;;;;;;;;;;;;;;5094673;28;19912;-68
2023/08/19 17:53:29;;;;;;;;;;;;;;;;;;5094302;28;19927;-68